createdAt,value
2023-02-02T00:01:59.754Z,1.80
2023-02-02T00:04:35.083Z,1.80
2023-02-02T00:07:02.969Z,2.42
2023-02-02T00:09:32.613Z,2.50
2023-02-02T00:12:00.064Z,1.52
2023-02-02T00:14:26.976Z,1.50
2023-02-02T00:16:57.675Z,1.70
2023-02-02T00:19:26.876Z,1.13
2023-02-02T00:21:54.901Z,2.23
2023-02-02T00:24:21.949Z,1.30
2023-02-02T00:26:54.435Z,1.15
2023-02-02T00:29:25.355Z,2.47
2023-02-02T00:31:52.126Z,1.55
2023-02-02T00:34:19.358Z,1.47
2023-02-02T00:36:46.054Z,2.25
2023-02-02T00:39:18.570Z,2.35
2023-02-02T00:41:45.486Z,1.60
2023-02-02T00:44:31.492Z,1.35
2023-02-02T00:46:58.358Z,1.50
2023-02-02T00:49:24.768Z,1.85
2023-02-02T00:51:51.070Z,2.25
2023-02-02T00:54:17.558Z,1.30
2023-02-02T00:56:44.240Z,0.82
2023-02-02T00:59:11.417Z,1.50
2023-02-02T01:01:38.082Z,1.65
2023-02-02T01:04:04.494Z,1.75
2023-02-02T01:06:31.071Z,1.90
2023-02-02T01:08:57.622Z,1.60
2023-02-02T01:11:25.473Z,2.03
2023-02-02T01:13:51.910Z,1.92
2023-02-02T01:16:18.332Z,1.88
2023-02-02T01:18:44.734Z,2.28
2023-02-02T01:21:12.414Z,0.93
2023-02-02T01:23:39.696Z,1.40
2023-02-02T01:26:08.140Z,0.63
2023-02-02T01:28:34.996Z,1.13
2023-02-02T01:31:10.263Z,1.30
2023-02-02T01:33:36.717Z,0.85
2023-02-02T01:36:06.393Z,0.57
2023-02-02T01:38:33.563Z,1.65
2023-02-02T01:41:00.610Z,0.77
2023-02-02T01:43:30.852Z,0.88
2023-02-02T01:45:59.071Z,0.82
2023-02-02T01:48:32.493Z,0.70
2023-02-02T01:51:02.844Z,0.82
2023-02-02T01:53:30.343Z,0.90
2023-02-02T01:55:57.037Z,0.80
2023-02-02T01:58:35.273Z,0.70
2023-02-02T02:01:01.647Z,0.73
2023-02-02T02:03:31.851Z,0.70
2023-02-02T02:06:05.852Z,0.68
2023-02-02T02:08:39.632Z,0.50
2023-02-02T02:11:06.786Z,0.98
2023-02-02T02:13:56.226Z,0.60
2023-02-02T02:16:37.042Z,0.60
2023-02-02T02:19:09.296Z,1.40
2023-02-02T02:22:05.508Z,0.57
2023-02-02T02:25:58.305Z,0.63
2023-02-02T02:28:27.544Z,0.70
2023-02-02T02:31:30.897Z,0.90
2023-02-02T02:34:07.499Z,1.20
2023-02-02T02:36:50.049Z,1.30
2023-02-02T02:39:32.418Z,1.98
2023-02-02T02:42:04.125Z,1.43
2023-02-02T02:44:32.261Z,1.25
2023-02-02T02:46:58.992Z,1.33
2023-02-02T02:49:25.305Z,1.02
2023-02-02T02:51:54.119Z,1.00
2023-02-02T02:54:30.418Z,1.73
2023-02-02T02:57:08.138Z,1.60
2023-02-02T02:59:49.110Z,1.73
2023-02-02T03:02:40.833Z,1.52
2023-02-02T03:05:36.823Z,1.73
2023-02-02T03:08:11.753Z,2.17
2023-02-02T03:10:43.755Z,1.42
2023-02-02T03:13:12.059Z,2.08
2023-02-02T03:15:42.833Z,1.48
2023-02-02T03:18:09.381Z,1.52
2023-02-02T03:20:35.740Z,2.03
2023-02-02T03:23:02.077Z,1.88
2023-02-02T03:25:28.520Z,2.03
2023-02-02T03:27:54.865Z,2.75
2023-02-02T03:30:22.421Z,1.42
2023-02-02T03:32:49.445Z,1.57
2023-02-02T03:35:15.958Z,1.92
2023-02-02T03:37:42.295Z,1.98
2023-02-02T03:40:09.372Z,2.63
2023-02-02T03:42:35.722Z,2.28
2023-02-02T03:45:02.120Z,2.40
2023-02-02T03:47:29.602Z,2.10
2023-02-02T03:49:56.091Z,2.53
2023-02-02T03:52:22.747Z,1.23
2023-02-02T03:54:49.121Z,2.45
2023-02-02T03:57:15.458Z,1.87
2023-02-02T03:59:41.791Z,2.72
2023-02-02T04:02:08.145Z,1.83
2023-02-02T04:04:34.588Z,1.75
2023-02-02T04:07:01.734Z,1.80
2023-02-02T04:09:28.367Z,1.80
2023-02-02T04:11:54.971Z,1.83
2023-02-02T04:14:21.372Z,1.67
2023-02-02T04:16:47.715Z,1.25
2023-02-02T04:19:14.131Z,1.70
2023-02-02T04:21:40.751Z,1.67
2023-02-02T04:24:11.427Z,1.65
2023-02-02T04:26:37.855Z,2.40
2023-02-02T04:29:04.241Z,1.70
2023-02-02T04:31:31.896Z,1.60
2023-02-02T04:33:59.405Z,2.67
2023-02-02T04:36:26.265Z,1.40
2023-02-02T04:38:53.530Z,1.90
2023-02-02T04:41:20.066Z,1.45
2023-02-02T04:43:47.131Z,1.50
2023-02-02T04:46:14.272Z,2.90
2023-02-02T04:48:41.938Z,1.50
2023-02-02T04:51:11.373Z,1.73
2023-02-02T04:53:37.965Z,1.33
2023-02-02T04:56:16.310Z,2.13
2023-02-02T04:58:43.642Z,1.60
2023-02-02T05:01:13.378Z,1.67
2023-02-02T05:03:39.831Z,1.63
2023-02-02T05:06:07.086Z,1.58
2023-02-02T05:08:33.665Z,1.40
2023-02-02T05:11:00.019Z,2.17
2023-02-02T05:13:26.517Z,1.30
2023-02-02T05:15:53.682Z,2.15
2023-02-02T05:18:20.096Z,1.70
2023-02-02T05:20:46.397Z,2.03
2023-02-02T05:23:12.738Z,2.07
2023-02-02T05:25:39.160Z,1.15
2023-02-02T05:28:07.033Z,1.80
2023-02-02T05:30:33.788Z,1.77
2023-02-02T05:33:00.246Z,1.80
2023-02-02T05:35:27.826Z,1.57
2023-02-02T05:37:54.472Z,2.03
2023-02-02T05:40:20.852Z,1.73
2023-02-02T05:42:50.273Z,1.70
2023-02-02T05:45:16.842Z,2.30
2023-02-02T05:47:43.190Z,2.27
2023-02-02T05:50:10.017Z,1.67
2023-02-02T05:52:38.713Z,1.73
2023-02-02T05:55:05.671Z,1.38
2023-02-02T05:57:32.891Z,1.50
2023-02-02T05:59:59.236Z,2.10
2023-02-02T06:02:25.593Z,1.92
2023-02-02T06:04:52.018Z,1.33
2023-02-02T06:07:18.353Z,1.40
2023-02-02T06:09:44.693Z,1.17
2023-02-02T06:12:11.106Z,1.30
2023-02-02T06:14:37.755Z,1.45
2023-02-02T06:17:04.137Z,1.40
2023-02-02T06:19:30.473Z,1.40
2023-02-02T06:21:56.820Z,1.73
2023-02-02T06:24:24.428Z,1.40
2023-02-02T06:26:50.796Z,1.50
2023-02-02T06:29:17.137Z,1.17
2023-02-02T06:31:45.361Z,1.25
2023-02-02T06:34:14.711Z,1.58
2023-02-02T06:36:42.133Z,1.57
2023-02-02T06:39:09.581Z,1.33
2023-02-02T06:41:35.935Z,0.85
2023-02-02T06:44:02.816Z,1.10
2023-02-02T06:46:29.370Z,1.50
2023-02-02T06:48:56.787Z,1.23
2023-02-02T06:51:23.277Z,1.92
2023-02-02T06:53:49.806Z,1.15
2023-02-02T06:56:16.911Z,1.92
2023-02-02T06:58:43.233Z,1.25
2023-02-02T07:01:12.012Z,1.30
2023-02-02T07:03:39.119Z,1.35
2023-02-02T07:06:33.896Z,1.20
2023-02-02T07:09:02.626Z,1.55
2023-02-02T07:11:31.956Z,2.30
2023-02-02T07:13:59.313Z,1.13
2023-02-02T07:16:25.754Z,1.63
2023-02-02T07:18:52.778Z,1.25
2023-02-02T07:21:24.372Z,1.70
2023-02-02T07:23:53.198Z,1.90
2023-02-02T07:26:20.047Z,2.10
2023-02-02T07:28:46.960Z,2.08
2023-02-02T07:31:14.962Z,2.03
2023-02-02T07:33:43.317Z,1.80
2023-02-02T07:36:11.383Z,1.60
2023-02-02T07:38:38.103Z,1.80
2023-02-02T07:41:04.904Z,2.20
2023-02-02T07:43:31.381Z,1.48
2023-02-02T07:46:08.045Z,1.98
2023-02-02T07:48:34.922Z,1.95
2023-02-02T07:51:05.836Z,3.00
2023-02-02T07:53:32.583Z,1.75
2023-02-02T07:56:14.008Z,1.83
2023-02-02T07:58:40.875Z,1.73
2023-02-02T08:01:09.924Z,1.73
2023-02-02T08:03:37.172Z,1.83
2023-02-02T08:06:12.216Z,1.33
2023-02-02T08:08:38.878Z,2.10
2023-02-02T08:11:05.342Z,1.35
2023-02-02T08:13:31.700Z,2.53
2023-02-02T08:15:58.470Z,1.80
2023-02-02T08:18:25.626Z,1.80
2023-02-02T08:20:52.644Z,1.98
2023-02-02T08:23:24.751Z,1.25
2023-02-02T08:25:51.345Z,1.42
2023-02-02T08:28:20.770Z,1.80
2023-02-02T08:30:55.524Z,1.73
2023-02-02T08:33:22.072Z,1.75
2023-02-02T08:35:48.501Z,2.63
2023-02-02T08:38:14.847Z,1.27
2023-02-02T08:40:41.148Z,1.47
2023-02-02T08:43:07.470Z,2.67
2023-02-02T08:46:02.230Z,1.58
2023-02-02T08:48:23.522Z,1.30
2023-02-02T08:50:56.854Z,2.15
2023-02-02T08:53:25.053Z,1.33
2023-02-02T08:56:11.065Z,1.42
2023-02-02T08:58:38.248Z,1.70
2023-02-02T09:01:08.899Z,1.73
2023-02-02T09:03:35.989Z,1.45
2023-02-02T09:06:11.478Z,1.60
2023-02-02T09:08:38.322Z,1.35
2023-02-02T09:11:07.421Z,1.50
2023-02-02T09:13:34.455Z,1.48
2023-02-02T09:16:02.921Z,0.98
2023-02-02T09:18:32.073Z,1.13
2023-02-02T09:21:04.511Z,2.10
2023-02-02T09:23:32.358Z,1.35
2023-02-02T09:26:09.473Z,1.98
2023-02-02T09:28:39.169Z,1.63
2023-02-02T09:31:06.673Z,1.97
2023-02-02T09:33:33.439Z,1.80
2023-02-02T09:36:12.534Z,1.95
2023-02-02T09:38:40.050Z,1.42
2023-02-02T09:41:36.681Z,1.70
2023-02-02T09:44:24.641Z,1.03
2023-02-02T09:47:09.833Z,1.27
2023-02-02T09:49:55.254Z,2.00
2023-02-02T09:52:44.055Z,1.42
2023-02-02T09:55:30.335Z,1.70
2023-02-02T09:58:16.288Z,1.57
2023-02-02T10:00:50.871Z,1.60
2023-02-02T10:03:39.559Z,1.30
2023-02-02T10:06:18.074Z,1.60
2023-02-02T10:08:50.213Z,1.40
2023-02-02T10:11:28.645Z,1.83
2023-02-02T10:14:01.151Z,1.60
2023-02-02T10:16:27.536Z,1.45
2023-02-02T10:19:13.326Z,1.25
2023-02-02T10:21:57.376Z,2.40
2023-02-02T10:24:26.289Z,1.50
2023-02-02T10:26:58.101Z,1.70
2023-02-02T10:29:24.440Z,2.38
2023-02-02T10:32:12.766Z,1.23
2023-02-02T10:35:14.652Z,1.58
2023-02-02T10:37:50.168Z,1.40
2023-02-02T10:40:35.179Z,1.38
2023-02-02T10:43:42.174Z,1.00
2023-02-02T10:46:14.289Z,1.98
2023-02-02T10:48:46.283Z,1.48
2023-02-02T10:51:29.271Z,1.47
2023-02-02T10:54:02.188Z,2.22
2023-02-02T10:56:41.881Z,1.63
2023-02-02T10:59:33.535Z,1.40
2023-02-02T11:02:08.634Z,2.05
2023-02-02T11:05:00.680Z,1.70
2023-02-02T11:07:27.018Z,1.40
2023-02-02T11:09:53.516Z,1.48
2023-02-02T11:12:27.115Z,1.83
2023-02-02T11:15:09.774Z,1.48
2023-02-02T11:17:39.204Z,1.30
2023-02-02T11:20:24.053Z,2.83
2023-02-02T11:23:00.759Z,1.23
2023-02-02T11:25:32.678Z,1.70
2023-02-02T11:28:00.620Z,1.83
2023-02-02T11:30:37.017Z,1.40
2023-02-02T11:33:24.531Z,1.23
2023-02-02T11:36:05.704Z,1.88
2023-02-02T11:38:33.091Z,1.13
2023-02-02T11:41:04.098Z,0.93
2023-02-02T11:43:40.993Z,1.20
2023-02-02T11:46:30.999Z,1.10
2023-02-02T11:49:04.329Z,0.75
2023-02-02T11:51:34.070Z,1.23
2023-02-02T11:54:03.514Z,1.85
2023-02-02T11:56:32.391Z,1.07
2023-02-02T11:59:00.738Z,1.63
2023-02-02T12:01:28.015Z,1.55
2023-02-02T12:04:16.965Z,0.77
2023-02-02T12:06:43.863Z,0.65
2023-02-02T12:09:18.234Z,1.00
2023-02-02T12:12:02.056Z,1.20
2023-02-02T12:14:39.718Z,1.63
2023-02-02T12:17:42.858Z,0.98
2023-02-02T12:20:40.392Z,1.30
2023-02-02T12:23:18.805Z,1.07
2023-02-02T12:26:09.139Z,1.42
2023-02-02T12:29:08.115Z,1.77
2023-02-02T12:31:42.404Z,0.98
2023-02-02T12:34:33.969Z,1.00
2023-02-02T12:37:08.656Z,0.90
2023-02-02T12:40:02.727Z,0.98
2023-02-02T12:42:40.899Z,0.93
2023-02-02T12:45:19.656Z,0.70
2023-02-02T12:48:10.349Z,0.70
2023-02-02T12:50:48.088Z,0.70
2023-02-02T12:53:34.101Z,1.08
2023-02-02T12:56:16.010Z,1.50
2023-02-02T12:58:48.647Z,0.80
2023-02-02T13:01:45.542Z,0.70
2023-02-02T13:04:23.329Z,1.27
2023-02-02T13:06:57.239Z,1.40
2023-02-02T13:09:33.452Z,1.20
2023-02-02T13:12:11.779Z,1.17
2023-02-02T13:14:50.176Z,1.13
2023-02-02T13:17:29.136Z,1.20
2023-02-02T13:20:03.322Z,1.00
2023-02-02T13:22:42.653Z,1.05
2023-02-02T13:25:29.607Z,0.82
2023-02-02T13:27:59.666Z,1.10
2023-02-02T13:30:31.462Z,1.20
2023-02-02T13:33:08.059Z,1.40
2023-02-02T13:35:43.859Z,0.95
2023-02-02T13:38:25.382Z,0.75
2023-02-02T13:40:55.501Z,1.27
2023-02-02T13:43:30.932Z,1.30
2023-02-02T13:46:18.393Z,1.23
2023-02-02T13:49:17.146Z,1.77
2023-02-02T13:51:55.503Z,0.88
2023-02-02T13:54:40.108Z,0.80
2023-02-02T13:57:18.601Z,0.77
2023-02-02T14:00:12.736Z,0.90
2023-02-02T14:02:45.060Z,0.80
2023-02-02T14:05:27.286Z,0.50
2023-02-02T14:08:06.800Z,0.77
2023-02-02T14:10:36.707Z,0.43
2023-02-02T14:13:35.394Z,0.55
2023-02-02T14:16:05.993Z,0.40
2023-02-02T14:18:56.795Z,0.40
2023-02-02T14:21:32.321Z,0.30
2023-02-02T14:24:00.223Z,0.30
2023-02-02T14:26:46.548Z,0.30
2023-02-02T14:29:31.717Z,0.30
2023-02-02T14:31:59.274Z,0.32
2023-02-02T14:34:42.879Z,0.95
2023-02-02T14:37:24.590Z,0.30
2023-02-02T14:40:16.179Z,0.22
2023-02-02T14:43:15.815Z,0.30
2023-02-02T14:46:10.271Z,0.30
2023-02-02T14:48:38.970Z,0.20
2023-02-02T14:51:14.479Z,0.30
2023-02-02T14:53:49.511Z,0.28
2023-02-02T14:56:17.365Z,0.30
2023-02-02T14:59:04.693Z,0.30
2023-02-02T15:01:34.237Z,0.22
2023-02-02T15:04:00.598Z,0.20
2023-02-02T15:06:40.494Z,0.30
2023-02-02T15:09:36.716Z,0.45
2023-02-02T15:12:03.044Z,0.50
2023-02-02T15:14:35.595Z,0.50
2023-02-02T15:17:07.238Z,0.53
2023-02-02T15:19:40.730Z,0.63
2023-02-02T15:22:41.327Z,0.85
2023-02-02T15:25:30.227Z,0.73
2023-02-02T15:28:11.298Z,0.90
2023-02-02T15:30:43.650Z,1.10
2023-02-02T15:33:23.907Z,0.90
2023-02-02T15:35:53.804Z,1.23
2023-02-02T15:38:21.547Z,1.33
2023-02-02T15:40:49.113Z,2.17
2023-02-02T15:43:15.662Z,1.47
2023-02-02T15:46:01.221Z,1.58
2023-02-02T15:48:30.153Z,1.58
2023-02-02T15:51:04.888Z,1.90
2023-02-02T15:53:43.586Z,1.55
2023-02-02T15:56:24.041Z,2.43
2023-02-02T15:58:53.780Z,1.70
2023-02-02T16:01:23.040Z,1.90
2023-02-02T16:03:52.465Z,1.35
2023-02-02T16:06:19.489Z,1.55
2023-02-02T16:08:46.427Z,1.20
2023-02-02T16:11:23.537Z,1.13
2023-02-02T16:14:03.151Z,1.85
2023-02-02T16:16:35.761Z,1.50
2023-02-02T16:19:08.265Z,1.75
2023-02-02T16:21:44.040Z,1.77
2023-02-02T16:24:16.974Z,2.17
2023-02-02T16:26:43.796Z,2.20
2023-02-02T16:29:17.215Z,2.63
2023-02-02T16:31:46.156Z,2.60
2023-02-02T16:34:39.855Z,2.77
2023-02-02T16:37:17.093Z,2.80
2023-02-02T16:39:43.746Z,2.30
2023-02-02T16:42:12.230Z,2.80
2023-02-02T16:44:43.785Z,2.47
2023-02-02T16:47:42.712Z,2.43
2023-02-02T16:50:08.997Z,3.05
2023-02-02T16:53:01.148Z,3.10
2023-02-02T16:55:43.478Z,3.05
2023-02-02T16:58:19.813Z,2.78
2023-02-02T17:01:14.535Z,3.60
2023-02-02T17:03:52.582Z,2.92
2023-02-02T17:06:41.679Z,2.85
2023-02-02T17:09:28.568Z,2.53
2023-02-02T17:12:33.145Z,2.15
2023-02-02T17:15:16.646Z,2.07
2023-02-02T17:17:47.992Z,2.88
2023-02-02T17:20:15.927Z,2.65
2023-02-02T17:22:47.220Z,2.38
2023-02-02T17:25:19.572Z,2.45
2023-02-02T17:27:46.660Z,3.10
2023-02-02T17:30:18.203Z,3.35
2023-02-02T17:32:44.565Z,2.72
2023-02-02T17:35:26.849Z,2.40
2023-02-02T17:37:53.905Z,2.13
2023-02-02T17:40:22.249Z,2.13
2023-02-02T17:42:51.959Z,2.10
2023-02-02T17:45:29.344Z,2.60
2023-02-02T17:47:55.681Z,2.35
2023-02-02T17:50:22.071Z,2.33
2023-02-02T17:52:49.680Z,2.77
2023-02-02T17:55:25.781Z,2.63
2023-02-02T17:57:53.258Z,2.90
2023-02-02T18:00:23.126Z,1.95
2023-02-02T18:02:55.822Z,2.85
2023-02-02T18:05:23.389Z,3.10
2023-02-02T18:07:50.059Z,3.25
2023-02-02T18:10:19.147Z,2.72
2023-02-02T18:12:45.668Z,2.70
2023-02-02T18:15:13.579Z,3.30
2023-02-02T18:17:40.954Z,3.20
2023-02-02T18:20:08.405Z,2.92
2023-02-02T18:22:34.772Z,3.40
2023-02-02T18:25:01.275Z,3.00
2023-02-02T18:27:29.525Z,3.03
2023-02-02T18:29:55.844Z,3.33
2023-02-02T18:32:22.234Z,2.85
2023-02-02T18:34:51.233Z,3.13
2023-02-02T18:37:17.877Z,2.65
2023-02-02T18:39:45.269Z,3.30
2023-02-02T18:42:11.660Z,3.13
2023-02-02T18:44:38.496Z,3.17
2023-02-02T18:47:05.705Z,3.10
2023-02-02T18:49:32.060Z,3.17
2023-02-02T18:51:58.394Z,3.42
2023-02-02T18:54:24.857Z,3.10
2023-02-02T18:56:51.182Z,3.30
2023-02-02T18:59:17.583Z,3.10
2023-02-02T19:01:44.290Z,3.42
2023-02-02T19:04:10.804Z,3.60
2023-02-02T19:06:55.811Z,3.13
2023-02-02T19:09:22.228Z,3.17
2023-02-02T19:11:50.458Z,3.03
2023-02-02T19:14:26.710Z,4.03
2023-02-02T19:16:58.280Z,3.13
2023-02-02T19:19:33.393Z,2.93
2023-02-02T19:22:07.474Z,3.88
2023-02-02T19:24:42.685Z,2.80
2023-02-02T19:27:24.016Z,3.22
2023-02-02T19:30:03.912Z,3.17
2023-02-02T19:32:36.806Z,3.00
2023-02-02T19:35:07.021Z,2.47
2023-02-02T19:37:39.178Z,3.22
2023-02-02T19:40:08.516Z,2.55
2023-02-02T19:42:43.694Z,3.28
2023-02-02T19:45:34.042Z,2.77
2023-02-02T19:48:11.522Z,2.30
2023-02-02T19:50:42.391Z,2.63
2023-02-02T19:53:24.590Z,2.40
2023-02-02T19:55:52.448Z,2.78
2023-02-02T19:58:28.853Z,2.37
2023-02-02T20:00:57.866Z,2.30
2023-02-02T20:03:28.172Z,2.67
2023-02-02T20:05:56.767Z,2.30
2023-02-02T20:08:28.802Z,1.98
2023-02-02T20:10:58.770Z,2.43
2023-02-02T20:13:35.525Z,2.30
2023-02-02T20:16:04.474Z,2.75
2023-02-02T20:18:44.195Z,2.33
2023-02-02T20:21:22.934Z,2.42
2023-02-02T20:23:49.399Z,2.10
2023-02-02T20:26:33.231Z,2.75
2023-02-02T20:29:03.652Z,2.42
2023-02-02T20:31:38.435Z,2.20
2023-02-02T20:34:29.842Z,2.25
2023-02-02T20:37:13.438Z,2.03
2023-02-02T20:39:41.948Z,2.42
2023-02-02T20:42:08.297Z,2.40
2023-02-02T20:44:35.248Z,2.20
2023-02-02T20:47:02.417Z,2.28
2023-02-02T20:49:31.564Z,2.43
2023-02-02T20:52:00.117Z,2.28
2023-02-02T20:54:26.485Z,2.60
2023-02-02T20:56:54.197Z,2.63
2023-02-02T20:59:23.935Z,3.45
2023-02-02T21:01:50.966Z,2.10
2023-02-02T21:04:18.483Z,2.05
2023-02-02T21:06:46.287Z,1.83
2023-02-02T21:09:12.648Z,1.98
2023-02-02T21:11:39.032Z,1.90
2023-02-02T21:14:05.862Z,2.03
2023-02-02T21:16:32.793Z,2.10
2023-02-02T21:18:59.374Z,2.33
2023-02-02T21:21:25.821Z,2.40
2023-02-02T21:23:52.429Z,2.20
2023-02-02T21:26:21.951Z,2.80
2023-02-02T21:28:48.645Z,1.83
2023-02-02T21:31:16.691Z,2.53
2023-02-02T21:33:44.771Z,2.22
2023-02-02T21:36:14.391Z,1.58
2023-02-02T21:38:40.730Z,2.17
2023-02-02T21:41:14.361Z,1.75
2023-02-02T21:43:41.017Z,1.60
2023-02-02T21:46:32.475Z,1.75
2023-02-02T21:48:59.759Z,1.98
2023-02-02T21:51:33.293Z,1.80
2023-02-02T21:54:14.314Z,1.75
2023-02-02T21:56:42.145Z,1.70
2023-02-02T21:59:35.800Z,1.35
2023-02-02T22:02:17.099Z,1.38
2023-02-02T22:04:43.545Z,1.57
2023-02-02T22:07:15.567Z,1.10
2023-02-02T22:09:44.686Z,1.90
2023-02-02T22:12:22.444Z,1.40
2023-02-02T22:14:50.996Z,1.40
2023-02-02T22:17:24.661Z,1.67
2023-02-02T22:20:01.052Z,1.92
2023-02-02T22:22:35.169Z,1.88
2023-02-02T22:25:06.187Z,1.08
2023-02-02T22:27:45.653Z,1.65
2023-02-02T22:30:25.815Z,1.57
2023-02-02T22:32:53.556Z,1.02
2023-02-02T22:35:20.588Z,1.13
2023-02-02T22:37:47.481Z,1.13
2023-02-02T22:40:14.384Z,1.30
2023-02-02T22:42:40.730Z,1.37
2023-02-02T22:45:07.562Z,1.45
2023-02-02T22:47:33.890Z,1.90
2023-02-02T22:50:00.202Z,1.20
2023-02-02T22:52:26.596Z,1.58
2023-02-02T22:54:53.106Z,1.67
2023-02-02T22:57:19.431Z,1.75
2023-02-02T22:59:45.764Z,1.50
2023-02-02T23:02:12.105Z,2.20
2023-02-02T23:04:38.406Z,2.15
2023-02-02T23:07:04.795Z,1.60
2023-02-02T23:09:31.123Z,2.25
2023-02-02T23:11:57.421Z,2.08
2023-02-02T23:14:23.946Z,2.33
2023-02-02T23:16:50.459Z,2.20
2023-02-02T23:19:16.824Z,1.97
2023-02-02T23:21:43.198Z,1.60
2023-02-02T23:24:09.600Z,2.17
2023-02-02T23:26:35.941Z,1.75
2023-02-02T23:29:02.496Z,1.55
2023-02-02T23:31:29.079Z,1.60
2023-02-02T23:33:55.510Z,1.45
2023-02-02T23:36:22.013Z,1.52
2023-02-02T23:38:48.368Z,1.60
2023-02-02T23:41:14.678Z,2.05
2023-02-02T23:43:42.580Z,1.97
2023-02-02T23:46:10.140Z,1.67
2023-02-02T23:48:37.076Z,1.58
2023-02-02T23:51:03.907Z,1.33
2023-02-02T23:53:33.483Z,1.00
2023-02-02T23:56:03.416Z,1.63
2023-02-02T23:58:29.781Z,1.42
